createdAt,value
2019-02-20T00:00:26.895Z,19.90
2019-02-20T00:03:31.887Z,20.00
2019-02-20T00:06:37.049Z,20.67
2019-02-20T00:09:42.004Z,19.60
2019-02-20T00:12:47.096Z,19.97
2019-02-20T00:15:52.137Z,20.43
2019-02-20T00:18:57.132Z,20.90
2019-02-20T00:22:02.143Z,19.17
2019-02-20T00:25:07.225Z,17.97
2019-02-20T00:28:12.350Z,17.73
2019-02-20T00:31:17.554Z,18.90
2019-02-20T00:34:22.560Z,20.30
2019-02-20T00:37:27.565Z,19.63
2019-02-20T00:40:32.652Z,18.97
2019-02-20T00:43:38.337Z,17.70
2019-02-20T00:47:04.573Z,17.87
2019-02-20T00:50:09.525Z,18.33
2019-02-20T00:53:25.000Z,19.30
2019-02-20T00:56:30.217Z,18.47
2019-02-20T00:59:35.200Z,18.63
2019-02-20T01:02:40.288Z,17.73
2019-02-20T01:05:45.281Z,18.70
2019-02-20T01:08:50.308Z,18.83
2019-02-20T01:11:55.482Z,18.27
2019-02-20T01:15:00.687Z,19.87
2019-02-20T01:18:05.653Z,19.00
2019-02-20T01:21:10.729Z,17.07
2019-02-20T01:24:15.814Z,17.43
2019-02-20T01:27:21.021Z,18.30
2019-02-20T01:30:25.986Z,16.57
2019-02-20T01:33:30.993Z,16.10
2019-02-20T01:36:36.077Z,16.73
2019-02-20T01:39:40.937Z,15.50
2019-02-20T01:42:45.881Z,17.27
2019-02-20T01:45:50.916Z,16.17
2019-02-20T01:48:55.941Z,16.00
2019-02-20T01:52:00.928Z,15.63
2019-02-20T01:55:06.782Z,14.30
2019-02-20T01:58:11.767Z,17.17
2019-02-20T02:01:35.625Z,16.53
2019-02-20T02:04:40.739Z,15.23
2019-02-20T02:07:45.837Z,14.73
2019-02-20T02:10:51.024Z,13.23
2019-02-20T02:13:56.041Z,15.67
2019-02-20T02:17:01.009Z,15.73
2019-02-20T02:20:06.838Z,15.43
2019-02-20T02:23:19.727Z,16.63
2019-02-20T02:26:18.820Z,15.20
2019-02-20T02:29:23.724Z,15.97
2019-02-20T02:32:28.628Z,15.70
2019-02-20T02:35:33.749Z,16.80
2019-02-20T02:38:38.963Z,16.20
2019-02-20T02:41:44.870Z,16.43
2019-02-20T02:44:50.072Z,16.50
2019-02-20T02:47:54.980Z,15.97
2019-02-20T02:51:00.061Z,15.00
2019-02-20T02:54:05.270Z,17.83
2019-02-20T02:57:10.262Z,16.60
2019-02-20T03:00:15.349Z,14.67
2019-02-20T03:03:20.429Z,15.43
2019-02-20T03:06:25.646Z,15.60
2019-02-20T03:09:30.624Z,16.07
2019-02-20T03:12:35.643Z,15.77
2019-02-20T03:15:40.589Z,16.43
2019-02-20T03:18:45.500Z,14.57
2019-02-20T03:21:50.541Z,15.30
2019-02-20T03:24:55.643Z,15.07
2019-02-20T03:28:00.625Z,15.00
2019-02-20T03:31:05.740Z,14.97
2019-02-20T03:34:10.902Z,15.37
2019-02-20T03:37:16.297Z,16.27
2019-02-20T03:40:21.405Z,14.87
2019-02-20T03:43:26.511Z,15.17
2019-02-20T03:46:31.387Z,16.53
2019-02-20T03:49:45.720Z,17.10
2019-02-20T03:52:50.968Z,14.37
2019-02-20T03:55:56.031Z,16.60
2019-02-20T03:59:01.261Z,15.70
2019-02-20T04:02:06.282Z,15.33
2019-02-20T04:05:11.540Z,16.13
2019-02-20T04:08:16.648Z,13.83
2019-02-20T04:11:21.605Z,15.60
2019-02-20T04:14:26.612Z,14.97
2019-02-20T04:17:31.983Z,16.10
2019-02-20T04:20:36.926Z,15.73
2019-02-20T04:23:42.032Z,15.47
2019-02-20T04:26:47.181Z,15.53
2019-02-20T04:29:52.288Z,14.27
2019-02-20T04:32:58.550Z,15.03
2019-02-20T04:36:03.803Z,15.43
2019-02-20T04:39:08.820Z,14.97
2019-02-20T04:42:14.172Z,13.90
2019-02-20T04:45:19.098Z,15.63
2019-02-20T04:48:24.047Z,13.10
2019-02-20T04:51:29.244Z,14.77
2019-02-20T04:54:34.315Z,15.30
2019-02-20T04:57:39.526Z,15.97
2019-02-20T05:00:44.600Z,13.70
2019-02-20T05:03:49.827Z,14.90
2019-02-20T05:06:54.800Z,15.37
2019-02-20T05:09:59.923Z,16.27
2019-02-20T05:13:04.979Z,17.17
2019-02-20T05:16:10.166Z,18.83
2019-02-20T05:19:15.128Z,17.73
2019-02-20T05:22:20.266Z,19.17
2019-02-20T05:25:25.407Z,18.90
2019-02-20T05:28:30.448Z,18.77
2019-02-20T05:31:35.701Z,20.17
2019-02-20T05:34:40.615Z,18.13
2019-02-20T05:37:45.769Z,16.93
2019-02-20T05:40:50.727Z,18.17
2019-02-20T05:43:55.799Z,20.77
2019-02-20T05:47:01.802Z,20.53
2019-02-20T05:50:06.836Z,18.90
2019-02-20T05:53:12.118Z,18.77
2019-02-20T05:56:17.052Z,18.10
2019-02-20T05:59:22.267Z,15.80
2019-02-20T06:02:27.614Z,15.00
2019-02-20T06:05:32.716Z,14.80
2019-02-20T06:08:37.833Z,15.87
2019-02-20T06:11:42.734Z,15.70
2019-02-20T06:14:47.679Z,16.50
2019-02-20T06:17:52.839Z,17.70
2019-02-20T06:21:00.820Z,19.40
2019-02-20T06:24:05.982Z,19.97
2019-02-20T06:27:11.018Z,19.57
2019-02-20T06:30:16.034Z,18.83
2019-02-20T06:33:20.975Z,21.03
2019-02-20T06:36:26.026Z,19.90
2019-02-20T06:39:31.255Z,19.47
2019-02-20T06:42:36.209Z,21.80
2019-02-20T06:45:41.173Z,20.43
2019-02-20T06:48:45.999Z,21.10
2019-02-20T06:51:50.915Z,20.57
2019-02-20T06:54:55.877Z,18.63
2019-02-20T06:58:00.962Z,19.37
2019-02-20T07:01:06.133Z,17.70
2019-02-20T07:04:11.197Z,18.10
2019-02-20T07:07:39.381Z,17.87
2019-02-20T07:11:05.732Z,18.47
2019-02-20T07:14:34.149Z,16.10
2019-02-20T07:18:24.988Z,15.33
2019-02-20T07:22:17.821Z,16.50
2019-02-20T07:25:51.541Z,16.27
2019-02-20T07:29:31.621Z,15.47
2019-02-20T07:32:36.735Z,16.33
2019-02-20T07:35:41.875Z,14.70
2019-02-20T07:38:46.828Z,16.17
2019-02-20T07:41:51.991Z,14.67
2019-02-20T07:44:56.937Z,16.67
2019-02-20T07:48:01.790Z,16.10
2019-02-20T07:51:06.695Z,15.80
2019-02-20T07:54:11.742Z,13.03
2019-02-20T07:57:16.839Z,15.07
2019-02-20T08:00:21.946Z,13.20
2019-02-20T08:03:27.133Z,13.67
2019-02-20T08:06:32.208Z,12.70
2019-02-20T08:09:37.188Z,13.37
2019-02-20T08:12:42.157Z,12.53
2019-02-20T08:15:47.219Z,13.90
2019-02-20T08:18:52.205Z,13.10
2019-02-20T08:21:57.376Z,12.63
2019-02-20T08:25:02.449Z,13.47
2019-02-20T08:28:07.169Z,11.80
2019-02-20T08:31:12.204Z,13.33
2019-02-20T08:34:17.309Z,13.47
2019-02-20T08:37:22.204Z,15.23
2019-02-20T08:40:27.158Z,18.30
2019-02-20T08:43:32.180Z,15.93
2019-02-20T08:46:37.606Z,15.97
2019-02-20T08:49:42.875Z,15.70
2019-02-20T08:52:47.905Z,14.40
2019-02-20T08:55:53.185Z,15.13
2019-02-20T08:58:58.283Z,15.60
2019-02-20T09:02:03.256Z,14.87
2019-02-20T09:05:08.771Z,18.37
2019-02-20T09:08:13.793Z,21.93
2019-02-20T09:11:18.731Z,21.13
2019-02-20T09:14:23.713Z,26.10
2019-02-20T09:17:28.641Z,25.73
2019-02-20T09:20:33.582Z,23.03
2019-02-20T09:23:38.604Z,22.30
2019-02-20T09:26:43.747Z,23.10
2019-02-20T09:29:48.792Z,24.77
2019-02-20T09:32:53.937Z,22.43
2019-02-20T09:35:58.917Z,22.83
2019-02-20T09:39:40.879Z,26.43
2019-02-20T09:42:47.037Z,23.20
2019-02-20T09:45:52.373Z,21.97
2019-02-20T09:48:57.617Z,20.20
2019-02-20T09:52:02.903Z,23.77
2019-02-20T09:55:08.679Z,24.63
2019-02-20T09:58:13.870Z,24.60
2019-02-20T10:01:19.000Z,23.27
2019-02-20T10:04:23.998Z,22.20
2019-02-20T10:07:29.275Z,22.73
2019-02-20T10:10:34.277Z,22.40
2019-02-20T10:13:39.321Z,22.33
2019-02-20T10:16:44.313Z,23.50
2019-02-20T10:19:52.020Z,23.23
2019-02-20T10:22:56.965Z,22.17
2019-02-20T10:26:01.881Z,22.30
2019-02-20T10:29:06.862Z,23.53
2019-02-20T10:32:11.854Z,22.63
2019-02-20T10:35:16.991Z,25.03
2019-02-20T10:38:22.334Z,31.30
2019-02-20T10:41:27.277Z,20.93
2019-02-20T10:47:49.025Z,22.20
2019-02-20T10:50:54.073Z,24.20
2019-02-20T10:53:59.048Z,23.87
2019-02-20T10:57:05.485Z,25.40
2019-02-20T11:00:24.211Z,24.20
2019-02-20T11:03:29.659Z,23.73
2019-02-20T11:06:34.968Z,22.20
2019-02-20T11:09:39.920Z,23.73
2019-02-20T11:12:44.809Z,21.87
2019-02-20T11:15:50.028Z,23.07
2019-02-20T11:18:54.950Z,23.70
2019-02-20T11:22:00.268Z,25.20
2019-02-20T11:25:05.258Z,23.90
2019-02-20T11:28:10.219Z,23.50
2019-02-20T11:31:15.417Z,22.73
2019-02-20T11:34:20.681Z,24.27
2019-02-20T11:37:25.645Z,21.70
2019-02-20T11:40:30.707Z,20.57
2019-02-20T11:43:35.661Z,20.63
2019-02-20T11:46:40.660Z,21.30
2019-02-20T11:49:45.798Z,22.70
2019-02-20T11:52:50.908Z,22.03
2019-02-20T11:55:56.112Z,22.00
2019-02-20T11:59:01.244Z,20.40
2019-02-20T12:02:06.504Z,19.33
2019-02-20T12:05:11.121Z,20.10
2019-02-20T12:08:17.189Z,18.47
2019-02-20T12:11:22.307Z,18.77
2019-02-20T12:14:27.310Z,21.60
2019-02-20T12:17:32.473Z,23.47
2019-02-20T12:20:37.538Z,21.00
2019-02-20T12:23:42.572Z,18.80
2019-02-20T12:26:47.693Z,19.50
2019-02-20T12:29:52.660Z,18.90
2019-02-20T12:32:57.597Z,19.47
2019-02-20T12:36:02.437Z,18.93
2019-02-20T12:39:07.668Z,19.87
2019-02-20T12:42:13.064Z,21.07
2019-02-20T12:45:18.244Z,20.00
2019-02-20T12:48:23.161Z,20.63
2019-02-20T12:51:27.861Z,18.83
2019-02-20T12:54:32.586Z,16.50
2019-02-20T12:57:37.946Z,16.77
2019-02-20T13:00:43.772Z,16.90
2019-02-20T13:03:48.777Z,18.93
2019-02-20T13:06:59.537Z,18.27
2019-02-20T13:10:00.611Z,18.33
2019-02-20T13:13:05.675Z,18.37
2019-02-20T13:16:10.604Z,16.57
2019-02-20T13:19:15.673Z,16.97
2019-02-20T13:22:20.646Z,18.47
2019-02-20T13:25:25.521Z,17.60
2019-02-20T13:28:30.448Z,18.17
2019-02-20T13:31:35.413Z,17.90
2019-02-20T13:34:40.505Z,15.73
2019-02-20T13:37:45.461Z,16.30
2019-02-20T13:40:50.397Z,15.10
2019-02-20T13:43:55.426Z,15.07
2019-02-20T13:47:00.467Z,15.37
2019-02-20T13:50:05.989Z,15.07
2019-02-20T13:53:11.121Z,16.70
2019-02-20T13:56:16.537Z,21.33
2019-02-20T13:59:21.538Z,17.80
2019-02-20T14:02:26.669Z,15.87
2019-02-20T14:05:31.716Z,14.90
2019-02-20T14:08:36.964Z,15.30
2019-02-20T14:12:00.936Z,17.97
2019-02-20T14:15:06.572Z,15.77
2019-02-20T14:18:11.815Z,17.20
2019-02-20T14:21:16.839Z,17.03
2019-02-20T14:24:40.961Z,16.50
2019-02-20T14:27:45.924Z,15.97
2019-02-20T14:30:51.048Z,14.83
2019-02-20T14:33:55.904Z,15.90
2019-02-20T14:37:00.848Z,15.40
2019-02-20T14:40:05.853Z,16.83
2019-02-20T14:43:10.967Z,14.83
2019-02-20T14:46:16.494Z,16.70
2019-02-20T14:49:21.438Z,16.60
2019-02-20T14:52:26.441Z,15.33
2019-02-20T14:55:31.730Z,16.50
2019-02-20T14:58:36.721Z,16.90
2019-02-20T15:01:41.789Z,16.23
2019-02-20T15:04:46.902Z,17.90
2019-02-20T15:08:10.772Z,16.93
2019-02-20T15:11:15.957Z,18.90
2019-02-20T15:14:21.683Z,16.97
2019-02-20T15:17:27.262Z,17.50
2019-02-20T15:20:32.314Z,19.73
2019-02-20T15:23:37.313Z,19.00
2019-02-20T15:26:42.402Z,20.37
2019-02-20T15:29:47.422Z,19.87
2019-02-20T15:32:52.440Z,18.20
2019-02-20T15:35:57.564Z,22.10
2019-02-20T15:39:02.816Z,24.37
2019-02-20T15:42:07.934Z,23.53
2019-02-20T15:45:13.229Z,22.20
2019-02-20T15:48:23.300Z,20.13
2019-02-20T15:51:25.152Z,22.00
2019-02-20T15:54:48.993Z,20.70
2019-02-20T15:57:54.126Z,22.30
2019-02-20T16:00:59.228Z,21.17
2019-02-20T16:04:04.193Z,21.87
2019-02-20T16:07:09.153Z,34.07
2019-02-20T16:10:34.784Z,27.37
2019-02-20T16:13:39.592Z,20.57
2019-02-20T16:16:44.580Z,20.50
2019-02-20T16:19:49.512Z,21.93
2019-02-20T16:22:54.432Z,21.50
2019-02-20T16:25:59.428Z,20.17
2019-02-20T16:29:04.412Z,20.20
2019-02-20T16:32:09.517Z,22.13
2019-02-20T16:35:14.614Z,20.90
2019-02-20T16:38:22.134Z,20.70
2019-02-20T16:41:27.465Z,20.47
2019-02-20T16:44:32.553Z,20.53
2019-02-20T16:47:39.364Z,21.27
2019-02-20T16:50:46.118Z,19.90
2019-02-20T16:53:51.232Z,18.43
2019-02-20T16:56:56.130Z,20.60
2019-02-20T17:00:01.391Z,20.30
2019-02-20T17:03:06.657Z,20.93
2019-02-20T17:06:12.854Z,22.07
2019-02-20T17:09:18.178Z,21.73
2019-02-20T17:12:23.351Z,21.47
2019-02-20T17:15:28.896Z,21.53
2019-02-20T17:18:33.785Z,23.20
2019-02-20T17:21:38.804Z,21.10
2019-02-20T17:24:43.937Z,20.93
2019-02-20T17:27:48.989Z,20.97
2019-02-20T17:30:54.182Z,21.00
2019-02-20T17:33:59.493Z,21.83
2019-02-20T17:37:04.619Z,22.13
2019-02-20T17:40:10.083Z,19.83
2019-02-20T17:43:15.077Z,20.97
2019-02-20T17:46:20.078Z,24.30
2019-02-20T17:49:25.242Z,23.27
2019-02-20T17:52:30.405Z,19.17
2019-02-20T17:55:35.654Z,20.50
2019-02-20T17:58:42.652Z,19.20
2019-02-20T18:01:47.856Z,20.70
2019-02-20T18:04:52.759Z,18.60
2019-02-20T18:07:57.761Z,16.60
2019-02-20T18:11:02.871Z,18.80
2019-02-20T18:14:09.786Z,18.30
2019-02-20T18:17:14.600Z,19.63
2019-02-20T18:20:19.679Z,19.20
2019-02-20T18:23:24.725Z,18.47
2019-02-20T18:26:48.442Z,23.20
2019-02-20T18:29:53.627Z,23.50
2019-02-20T18:32:58.521Z,22.83
2019-02-20T18:36:03.843Z,21.70
2019-02-20T18:39:09.167Z,21.37
2019-02-20T18:42:14.263Z,23.40
2019-02-20T18:45:19.624Z,22.00
2019-02-20T18:48:24.545Z,23.47
2019-02-20T18:51:29.648Z,20.47
2019-02-20T18:54:34.660Z,21.50
2019-02-20T18:57:39.675Z,23.23
2019-02-20T19:00:44.774Z,23.80
2019-02-20T19:03:50.265Z,23.70
2019-02-20T19:06:55.292Z,24.07
2019-02-20T19:10:00.279Z,23.77
2019-02-20T19:13:57.311Z,22.90
2019-02-20T19:17:43.427Z,22.30
2019-02-20T19:21:19.564Z,23.90
2019-02-20T19:25:17.345Z,25.83
2019-02-20T19:28:55.719Z,87.60
2019-02-20T19:32:38.805Z,28.70
2019-02-20T19:36:33.416Z,51.57
2019-02-20T19:40:17.861Z,26.17
2019-02-20T19:44:06.452Z,26.10
2019-02-20T19:47:27.996Z,24.87
2019-02-20T19:50:56.757Z,26.20
2019-02-20T19:54:23.720Z,25.80
2019-02-20T19:57:52.284Z,27.23
2019-02-20T20:01:33.538Z,27.20
2019-02-20T20:05:33.330Z,28.50
2019-02-20T20:09:02.728Z,27.90
2019-02-20T20:12:49.110Z,27.23
2019-02-20T20:16:33.476Z,27.80
2019-02-20T20:20:03.688Z,26.80
2019-02-20T20:23:57.985Z,26.10
2019-02-20T20:27:42.981Z,28.80
2019-02-20T20:31:44.268Z,27.93
2019-02-20T20:35:23.874Z,27.70
2019-02-20T20:39:10.960Z,28.50
2019-02-20T20:42:52.393Z,29.20
2019-02-20T20:46:26.631Z,28.27
2019-02-20T20:49:57.420Z,26.77
2019-02-20T20:53:36.057Z,29.03
2019-02-20T20:57:14.417Z,30.00
2019-02-20T21:00:52.644Z,29.00
2019-02-20T21:04:26.529Z,28.87
2019-02-20T21:07:53.935Z,31.77
2019-02-20T21:11:42.160Z,28.57
2019-02-20T21:15:14.839Z,24.90
2019-02-20T21:19:21.490Z,27.40
2019-02-20T21:23:06.201Z,28.13
2019-02-20T21:26:54.958Z,27.10
2019-02-20T21:30:32.541Z,63.60
2019-02-20T21:34:08.968Z,30.67
2019-02-20T21:37:47.408Z,29.83
2019-02-20T21:41:22.176Z,27.17
2019-02-20T21:45:29.093Z,28.87
2019-02-20T21:49:00.171Z,27.30
2019-02-20T21:52:32.821Z,28.73
2019-02-20T21:56:09.893Z,28.13
2019-02-20T22:00:06.754Z,29.70
2019-02-20T22:03:44.960Z,28.60
2019-02-20T22:07:29.468Z,27.10
2019-02-20T22:11:15.233Z,30.10
2019-02-20T22:14:47.636Z,28.70
2019-02-20T22:18:48.370Z,28.87
2019-02-20T22:22:44.857Z,29.60
2019-02-20T22:25:58.564Z,28.30
2019-02-20T22:29:55.622Z,27.00
2019-02-20T22:33:40.133Z,25.67
2019-02-20T22:37:44.993Z,27.60
2019-02-20T22:41:16.702Z,25.63
2019-02-20T22:44:53.772Z,29.00
2019-02-20T22:48:57.502Z,28.27
2019-02-20T22:52:34.482Z,27.43
2019-02-20T22:56:03.178Z,28.03
2019-02-20T23:00:01.868Z,26.40
2019-02-20T23:03:22.200Z,26.17
2019-02-20T23:07:08.034Z,28.30
2019-02-20T23:10:55.726Z,27.17
2019-02-20T23:14:12.309Z,28.60
2019-02-20T23:17:17.556Z,26.07
2019-02-20T23:20:22.778Z,27.70
2019-02-20T23:23:27.954Z,25.50
2019-02-20T23:26:51.886Z,30.17
2019-02-20T23:29:57.007Z,27.53
2019-02-20T23:33:02.178Z,28.57
2019-02-20T23:36:07.271Z,27.03
2019-02-20T23:39:12.457Z,25.67
2019-02-20T23:42:17.561Z,28.40
2019-02-20T23:45:22.749Z,27.80
2019-02-20T23:48:27.745Z,27.17
2019-02-20T23:51:32.821Z,27.40
2019-02-20T23:54:37.836Z,28.03
2019-02-20T23:57:42.841Z,26.27
